Time;durP1;ratioP1;P1;durP2;ratioP2;P2;SDS_P1;SDS_P2;PMS_P1;PMS_P2;Temp;Humidity;BMP_temperature;BMP_pressure;BME280_temperature;BME280_humidity;BME280_pressure;Samples;Min_cycle;Max_cycle;Signal;HPM_P1;HPM_P2
2022/02/02 00:03:20;;;;;;;38.97;7.17;;;;;;;5.07;100.00;100206.94;10145733;28;20145;-64
2022/02/02 00:08:31;;;;;;;39.28;7.00;;;;;;;5.12;100.00;100215.00;10150051;28;20620;-66
2022/02/02 00:13:56;;;;;;;44.90;5.88;;;;;;;5.18;100.00;100210.31;10150066;28;20089;-65
2022/02/02 00:23:57;;;;;;;65.78;9.93;;;;;;;5.26;100.00;100215.84;10151977;28;20143;-65
2022/02/02 00:29:00;;;;;;;59.00;8.85;;;;;;;5.26;100.00;100215.84;10152908;28;20038;-66
2022/02/02 00:34:07;;;;;;;49.13;7.97;;;;;;;5.25;100.00;100219.69;10152664;28;20050;-65
2022/02/02 00:39:03;;;;;;;52.53;9.35;;;;;;;5.25;100.00;100203.41;10153829;28;20070;-66
2022/02/02 00:44:02;;;;;;;63.03;8.13;;;;;;;5.27;100.00;100222.91;10143691;28;20546;-64
2022/02/02 00:49:02;;;;;;;45.63;7.13;;;;;;;5.25;100.00;100260.34;10152917;28;20638;-64
2022/02/02 00:53:58;;;;;;;32.15;5.40;;;;;;;5.11;100.00;100267.59;10150465;28;20595;-65
2022/02/02 00:58:54;;;;;;;25.73;3.50;;;;;;;5.00;100.00;100233.59;10144743;28;20089;-64
2022/02/02 01:03:51;;;;;;;34.30;4.22;;;;;;;4.98;100.00;100241.22;10145136;28;20468;-64
2022/02/02 01:09:10;;;;;;;38.45;6.43;;;;;;;4.95;100.00;100230.97;10147487;28;20077;-64
2022/02/02 01:19:37;;;;;;;41.92;6.75;;;;;;;4.85;100.00;100254.38;10147628;28;20081;-65
2022/02/02 01:29:50;;;;;;;55.33;6.43;;;;;;;4.91;100.00;100267.84;10145962;28;20038;-67
2022/02/02 01:34:47;;;;;;;43.58;6.70;;;;;;;4.92;100.00;100270.28;10144946;28;20157;-66
2022/02/02 01:39:45;;;;;;;41.78;6.63;;;;;;;4.93;100.00;100277.31;10143876;28;20393;-67
2022/02/02 01:45:00;;;;;;;41.10;6.28;;;;;;;4.90;100.00;100261.63;10148285;28;20137;-66
2022/02/02 01:54:56;;;;;;;46.15;6.57;;;;;;;4.93;100.00;100273.78;10151668;28;20412;-64
2022/02/02 01:59:53;;;;;;;40.42;6.82;;;;;;;4.91;100.00;100257.81;10151295;28;20464;-66
2022/02/02 02:04:49;;;;;;;20.65;4.72;;;;;;;4.92;100.00;100291.97;10141739;28;20108;-66
2022/02/02 02:09:46;;;;;;;30.88;4.80;;;;;;;4.92;100.00;100291.13;10148185;28;20076;-66
2022/02/02 02:19:44;;;;;;;35.35;4.80;;;;;;;4.90;100.00;100296.03;10148955;28;20116;-63
2022/02/02 02:24:42;;;;;;;27.65;4.60;;;;;;;4.90;100.00;100307.69;10149639;28;20445;-64
2022/02/02 03:01:10;;;;;;;28.17;4.70;;;;;;;4.88;100.00;100333.47;10143234;28;20145;-64
2022/02/02 04:03:35;;;;;;;39.40;5.50;;;;;;;4.99;100.00;100378.28;10156963;28;20054;-65
2022/02/02 04:08:35;;;;;;;49.40;7.05;;;;;;;5.03;100.00;100379.31;10153272;28;20145;-63
2022/02/02 04:55:42;;;;;;;30.17;6.07;;;;;;;4.96;100.00;100422.22;10152491;28;20678;-62
2022/02/02 05:06:08;;;;;;;33.33;4.63;;;;;;;5.00;100.00;100445.75;10148825;28;20053;-64
2022/02/02 05:11:22;;;;;;;32.80;5.97;;;;;;;4.96;100.00;100449.31;10149065;28;20054;-66
2022/02/02 05:16:48;;;;;;;;;;;;;;;4.84;100.00;100464.06;10146622;28;20089;-68
2022/02/02 05:22:18;;;;;;;19.92;3.85;;;;;;;4.74;100.00;100485.81;10147241;28;20009;-70
2022/02/02 05:53:08;;;;;;;27.15;5.13;;;;;;;4.85;100.00;100502.81;10143529;28;20043;-71
2022/02/02 05:58:07;;;;;;;23.15;3.42;;;;;;;4.85;100.00;100535.31;10144021;28;20054;-72
2022/02/02 06:03:09;;;;;;;32.88;4.00;;;;;;;4.88;100.00;100561.03;10143837;28;20069;-72
2022/02/02 06:08:12;;;;;;;19.30;2.95;;;;;;;4.84;100.00;100556.16;10139014;28;20187;-70
2022/02/02 06:13:10;;;;;;;18.33;3.42;;;;;;;4.82;100.00;100561.03;10149470;28;20412;-70
2022/02/02 06:18:07;;;;;;;23.15;3.90;;;;;;;4.81;100.00;100556.72;10151077;28;20397;-70
2022/02/02 06:23:14;;;;;;;29.02;3.67;;;;;;;4.79;100.00;100585.19;10150102;28;20167;-73
2022/02/02 06:28:16;;;;;;;19.63;2.65;;;;;;;4.79;100.00;100588.72;10139814;28;20570;-73
2022/02/02 06:33:14;;;;;;;20.58;2.85;;;;;;;4.72;100.00;100588.22;10141248;28;20069;-72
2022/02/02 06:38:10;;;;;;;21.02;2.20;;;;;;;4.62;100.00;100618.09;10140562;28;20039;-72
2022/02/02 06:43:07;;;;;;;24.33;4.18;;;;;;;4.62;100.00;100634.34;10150759;28;20133;-72
2022/02/02 06:48:05;;;;;;;13.55;2.70;;;;;;;4.61;100.00;100643.53;10148836;28;20038;-71
2022/02/02 06:53:26;;;;;;;23.48;2.83;;;;;;;4.62;100.00;100656.81;10113680;28;20133;-72
2022/02/02 06:58:45;;;;;;;25.63;3.50;;;;;;;4.66;100.00;100689.53;10138263;28;20105;-72
2022/02/02 07:03:58;;;;;;;21.27;3.70;;;;;;;4.68;100.00;100713.66;10149599;28;20073;-72
2022/02/02 07:14:26;;;;;;;27.27;4.57;;;;;;;4.71;100.00;100745.59;10153975;28;20050;-72
2022/02/02 07:24:55;;;;;;;30.63;4.75;;;;;;;4.69;100.00;100743.16;10149362;28;20051;-73
2022/02/02 07:40:09;;;;;;;18.48;3.50;;;;;;;4.67;100.00;100788.69;10146907;28;20077;-73
2022/02/02 07:45:10;;;;;;;28.33;3.28;;;;;;;4.70;100.00;100804.38;10153364;28;20042;-71
2022/02/02 07:50:08;;;;;;;26.20;3.75;;;;;;;4.72;100.00;100785.13;10153706;28;20043;-71
2022/02/02 07:55:07;;;;;;;30.48;4.93;;;;;;;4.64;100.00;100789.22;10143329;28;20181;-72
2022/02/02 08:00:10;;;;;;;30.80;3.45;;;;;;;4.69;100.00;100813.59;10162820;28;20093;-70
2022/02/02 08:05:09;;;;;;;22.02;3.28;;;;;;;4.67;100.00;100826.59;10155054;28;20500;-71
2022/02/02 08:10:17;;;;;;;25.88;3.42;;;;;;;4.66;100.00;100840.41;10170794;28;20058;-71
2022/02/02 08:15:16;;;;;;;26.00;4.18;;;;;;;4.74;100.00;100854.19;10161094;28;20054;-72
2022/02/02 08:20:13;;;;;;;26.23;5.07;;;;;;;4.79;100.00;100866.91;10156613;28;20368;-65
2022/02/02 08:25:13;;;;;;;23.40;3.55;;;;;;;4.83;100.00;100866.09;10146945;28;20077;-64
2022/02/02 08:30:12;;;;;;;22.48;4.85;;;;;;;4.80;100.00;100874.78;10147824;28;20129;-68
2022/02/02 08:35:09;;;;;;;24.13;4.05;;;;;;;4.79;100.00;100870.44;10145452;28;20142;-65
2022/02/02 08:40:27;;;;;;;22.50;3.28;;;;;;;4.75;100.00;100882.91;10149278;28;20074;-65
2022/02/02 08:45:31;;;;;;;27.35;3.58;;;;;;;4.89;100.00;100899.38;10141902;28;20050;-65
2022/02/02 08:50:43;;;;;;;20.00;2.60;;;;;;;4.96;100.00;100921.59;10146003;28;20046;-69
2022/02/02 09:00:55;;;;;;;23.00;3.05;;;;;;;4.93;100.00;100937.59;10150222;28;20042;-66
2022/02/02 09:05:51;;;;;;;33.78;4.68;;;;;;;5.10;100.00;100943.50;10147071;28;20504;-63
2022/02/02 09:36:36;;;;;;;21.38;3.17;;;;;;;5.36;100.00;100967.81;10148451;28;20453;-66
2022/02/02 09:41:40;;;;;;;16.05;3.05;;;;;;;5.43;100.00;100969.16;10133241;28;20050;-66
2022/02/02 09:51:43;;;;;;;19.40;3.17;;;;;;;5.60;100.00;100990.53;10165780;28;20487;-66
2022/02/02 10:17:38;;;;;;;21.00;2.80;;;;;;;5.96;100.00;101058.22;10149139;28;20070;-69
2022/02/02 10:22:46;;;;;;;18.75;2.72;;;;;;;5.91;100.00;101071.78;10138727;28;20073;-67
2022/02/02 10:27:46;;;;;;;19.60;3.03;;;;;;;5.87;100.00;101076.13;10149689;28;20329;-66
2022/02/02 10:32:48;;;;;;;19.60;2.40;;;;;;;5.96;100.00;101112.50;10150462;28;20508;-67
2022/02/02 10:37:55;;;;;;;11.82;2.25;;;;;;;6.05;100.00;101110.84;10153649;28;20088;-67
2022/02/02 10:42:52;;;;;;;17.77;2.30;;;;;;;6.09;100.00;101106.50;10137624;28;20133;-65
2022/02/02 10:47:56;;;;;;;15.77;2.28;;;;;;;6.09;100.00;101122.78;10148259;28;20522;-64
2022/02/02 10:53:17;;;;;;;20.77;2.67;;;;;;;6.14;100.00;101118.44;10144759;28;20101;-66
2022/02/02 11:08:33;;;;;;;18.80;2.20;;;;;;;6.30;100.00;101155.28;10142930;28;20063;-67
2022/02/02 11:13:29;;;;;;;10.43;2.10;;;;;;;6.48;100.00;101143.78;10137421;28;20085;-67
2022/02/02 11:18:53;;;;;;;15.75;2.25;;;;;;;6.39;100.00;101153.63;10140705;28;20412;-67
2022/02/02 11:23:51;;;;;;;11.18;2.10;;;;;;;6.48;100.00;101162.81;10134719;28;20142;-67
2022/02/02 11:28:49;;;;;;;17.73;3.08;;;;;;;6.52;100.00;101173.91;10139125;28;20069;-67
2022/02/02 11:33:52;;;;;;;18.98;3.05;;;;;;;6.45;100.00;101185.09;10144433;28;20644;-68
2022/02/02 11:38:52;;;;;;;13.70;1.75;;;;;;;6.33;100.00;101195.44;10143100;28;20061;-67
2022/02/02 11:44:08;;;;;;;24.27;4.63;;;;;;;6.75;100.00;101218.63;10140956;28;20144;-68
2022/02/02 11:49:15;;;;;;;13.55;2.85;;;;;;;7.04;100.00;101226.09;10155344;28;20466;-67
2022/02/02 11:54:17;;;;;;;16.00;2.28;;;;;;;7.10;100.00;101238.56;10151663;28;20062;-67
2022/02/02 11:59:56;;;;;;;11.88;1.80;;;;;;;6.72;100.00;101227.34;10157477;28;20050;-66
2022/02/02 12:05:11;;;;;;;21.65;2.25;;;;;;;6.67;100.00;101240.97;10161542;28;20068;-67
2022/02/02 12:10:16;;;;;;;13.57;2.33;;;;;;;6.69;100.00;101255.09;10150004;28;20050;-67
2022/02/02 12:47:20;;;;;;;16.88;2.95;;;;;;;6.70;100.00;101292.03;10152877;28;20637;-65
2022/02/02 13:02:45;;;;;;;11.02;2.13;;;;;;;8.29;100.00;101301.84;10144872;28;20066;-66
2022/02/02 13:07:43;;;;;;;12.18;1.55;;;;;;;8.26;100.00;101324.19;10155651;28;20640;-66
2022/02/02 13:12:53;;;;;;;11.40;1.70;;;;;;;7.31;100.00;101316.22;10153758;28;20149;-67
2022/02/02 13:18:16;;;;;;;11.55;1.65;;;;;;;6.79;100.00;101346.63;10150022;28;20049;-66
2022/02/02 13:28:34;;;;;;;11.23;2.80;;;;;;;6.63;100.00;101340.44;10146560;28;20054;-67
2022/02/02 13:33:39;;;;;;;11.50;2.30;;;;;;;6.53;100.00;101339.38;10144676;28;20070;-65
2022/02/02 13:39:06;;;;;;;10.90;2.20;;;;;;;6.39;100.00;101338.31;10136467;28;20047;-66
2022/02/02 13:44:25;;;;;;;13.13;2.30;;;;;;;6.90;100.00;101338.16;10142264;28;20417;-65
2022/02/02 13:54:41;;;;;;;;;;;;;;;7.90;100.00;101370.81;10142503;28;20089;-65
2022/02/02 14:00:10;;;;;;;17.02;2.75;;;;;;;7.79;100.00;101379.03;10148833;28;19922;-69
2022/02/02 14:10:53;;;;;;;21.23;2.20;;;;;;;6.78;100.00;101399.34;10164264;28;20491;-69
2022/02/02 14:26:10;;;;;;;14.05;2.55;;;;;;;6.59;100.00;101429.00;10150340;28;20072;-69
2022/02/02 14:31:16;;;;;;;;;;;;;;;6.65;100.00;101439.59;10125963;28;20046;-70
2022/02/02 14:36:24;;;;;;;17.15;3.80;;;;;;;6.29;100.00;101479.56;10136801;28;19932;-69
2022/02/02 14:47:36;;;;;;;18.10;2.30;;;;;;;6.20;100.00;101470.31;10145683;28;20050;-69
2022/02/02 14:52:10;;;;;;;19.23;1.98;;;;;;;6.26;100.00;101488.22;10134479;28;20109;-69
2022/02/02 15:28:48;;;;;;;11.43;1.75;;;;;;;5.73;100.00;101547.22;10172474;28;20042;-68
2022/02/02 15:33:49;;;;;;;14.95;2.60;;;;;;;5.48;100.00;101540.63;10152121;28;20135;-73
2022/02/02 15:38:49;;;;;;;13.93;1.48;;;;;;;5.38;100.00;101567.66;10147699;28;20137;-68
2022/02/02 15:44:54;;;;;;;14.65;1.88;;;;;;;5.32;100.00;101572.25;10149106;28;20039;-68
2022/02/02 16:04:42;;;;;;;13.00;2.60;;;;;;;4.95;100.00;101629.19;10151520;28;20829;-68
2022/02/02 16:09:50;;;;;;;18.85;2.88;;;;;;;5.02;100.00;101614.34;10128846;28;20047;-69
2022/02/02 16:14:52;;;;;;;12.35;2.38;;;;;;;4.98;100.00;101623.25;10129392;28;20065;-70
2022/02/02 16:25:25;;;;;;;19.63;3.30;;;;;;;4.90;100.00;101648.09;10145111;28;20104;-69
2022/02/02 16:40:31;;;;;;;22.95;4.22;;;;;;;4.90;100.00;101667.06;10145077;28;20070;-68
2022/02/02 16:45:29;;;;;;;15.65;2.20;;;;;;;4.82;100.00;101674.56;10146571;28;20050;-69
2022/02/02 16:50:31;;;;;;;19.50;3.65;;;;;;;4.78;100.00;101684.31;10146106;28;20046;-69
2022/02/02 17:42:56;;;;;;;15.35;2.83;;;;;;;4.37;100.00;101743.41;10142809;28;20074;-70
2022/02/02 18:12:23;;;;;;;19.88;4.78;;;;;;;4.28;100.00;101757.63;10134052;28;20046;-69
2022/02/02 18:15:27;;;;;;;25.85;3.50;;;;;;;4.19;100.00;101768.06;10144429;28;20500;-69
2022/02/02 18:19:48;;;;;;;25.85;3.50;;;;;;;4.18;100.00;101766.44;10150060;28;20050;-70
2022/02/02 18:25:01;;;;;;;27.95;3.30;;;;;;;4.09;100.00;101773.34;10136588;28;20101;-69
2022/02/02 18:30:13;;;;;;;27.13;4.00;;;;;;;4.12;100.00;101778.25;10138808;28;20073;-69
2022/02/02 18:35:18;;;;;;;23.30;3.70;;;;;;;4.12;100.00;101778.25;10144023;28;20140;-69
2022/02/02 19:00:31;;;;;;;22.73;2.90;;;;;;;4.21;100.00;101776.75;10142238;28;20178;-69
2022/02/02 20:03:20;;;;;;;37.80;4.45;;;;;;;3.74;100.00;101766.31;10142633;28;20567;-69
2022/02/02 20:12:57;;;;;;;17.85;3.55;;;;;;;3.70;100.00;101770.59;10157504;28;20089;-69
2022/02/02 20:17:56;;;;;;;25.27;3.28;;;;;;;3.60;100.00;101765.81;10155317;28;20050;-69
2022/02/02 20:22:53;;;;;;;20.80;3.45;;;;;;;3.58;100.00;101776.88;10170686;28;20542;-69
2022/02/02 20:28:04;;;;;;;24.25;4.47;;;;;;;3.56;100.00;101776.31;10147902;28;20047;-69
2022/02/02 20:33:02;;;;;;;34.80;5.82;;;;;;;3.63;100.00;101775.34;10146720;28;20568;-69
2022/02/02 20:37:59;;;;;;;29.58;4.53;;;;;;;3.62;100.00;101776.38;10161953;28;20174;-70
2022/02/02 20:43:03;;;;;;;26.60;4.07;;;;;;;3.53;100.00;101789.50;10143880;28;20461;-70
2022/02/02 21:09:17;;;;;;;24.70;3.05;;;;;;;3.60;100.00;101803.69;10161621;28;20077;-68
2022/02/02 21:14:16;;;;;;;26.67;5.17;;;;;;;3.58;100.00;101806.63;10133355;28;20489;-68
2022/02/02 21:19:23;;;;;;;25.73;3.40;;;;;;;3.58;100.00;101790.41;10134575;28;20112;-69
2022/02/02 21:29:23;;;;;;;26.23;4.25;;;;;;;3.55;100.00;101784.66;10139003;28;20050;-67
2022/02/02 21:34:21;;;;;;;27.00;4.00;;;;;;;3.47;100.00;101793.19;10136479;28;20081;-67
2022/02/02 21:39:21;;;;;;;24.63;3.65;;;;;;;3.35;100.00;101804.06;10146937;28;20058;-66
2022/02/02 21:44:19;;;;;;;19.63;3.10;;;;;;;3.42;100.00;101796.63;10153854;28;20468;-65
2022/02/02 21:49:19;;;;;;;34.30;4.93;;;;;;;3.36;100.00;101802.97;10138411;28;20099;-66
2022/02/02 21:54:15;;;;;;;33.60;4.50;;;;;;;3.36;100.00;101792.16;10183499;28;20081;-66
2022/02/02 21:59:12;;;;;;;20.98;3.13;;;;;;;3.31;100.00;101789.38;10155417;28;20643;-66
2022/02/02 22:04:09;;;;;;;22.85;3.53;;;;;;;3.29;100.00;101788.78;10158298;28;20081;-66
2022/02/02 22:09:05;;;;;;;32.63;4.18;;;;;;;3.28;100.00;101784.47;10191075;28;20479;-66
2022/02/02 22:14:11;;;;;;;27.33;4.80;;;;;;;3.23;100.00;101787.09;10183765;28;20121;-66
2022/02/02 22:19:08;;;;;;;21.58;3.40;;;;;;;3.26;100.00;101775.78;10170502;28;20046;-66
2022/02/02 22:24:05;;;;;;;19.17;3.30;;;;;;;3.22;100.00;101783.53;10143312;28;20553;-67
2022/02/02 22:29:02;;;;;;;26.90;3.50;;;;;;;3.25;100.00;101774.13;10138170;28;20043;-67
2022/02/02 22:33:59;;;;;;;29.85;3.40;;;;;;;3.27;100.00;101780.09;10142624;28;20555;-67
2022/02/02 22:38:55;;;;;;;26.20;3.70;;;;;;;3.31;100.00;101779.38;10181589;28;20080;-66
2022/02/02 22:43:53;;;;;;;26.75;5.22;;;;;;;3.38;100.00;101771.13;10144995;28;20085;-66
2022/02/02 22:48:50;;;;;;;17.15;2.50;;;;;;;3.47;100.00;101761.53;10147102;28;20050;-64
2022/02/02 22:53:47;;;;;;;21.60;2.75;;;;;;;3.54;100.00;101767.59;10146435;28;20073;-65
2022/02/02 22:58:48;;;;;;;26.38;3.47;;;;;;;3.59;100.00;101759.56;10144954;28;20057;-64
2022/02/02 23:03:46;;;;;;;20.85;3.13;;;;;;;3.66;100.00;101769.41;10142735;28;20046;-65
2022/02/02 23:08:43;;;;;;;22.02;3.40;;;;;;;3.69;100.00;101779.75;10121456;28;20133;-65
2022/02/02 23:13:42;;;;;;;22.17;3.83;;;;;;;3.71;100.00;101772.22;10125282;28;20047;-66
2022/02/02 23:18:39;;;;;;;21.42;3.35;;;;;;;3.74;100.00;101772.53;10148846;28;20077;-66
2022/02/02 23:23:40;;;;;;;24.52;3.50;;;;;;;3.80;100.00;101781.56;10134214;28;20039;-64
2022/02/02 23:28:42;;;;;;;24.67;3.97;;;;;;;3.82;100.00;101776.72;10132223;28;20129;-65
2022/02/02 23:33:41;;;;;;;21.10;3.10;;;;;;;3.86;100.00;101779.75;10130279;28;20451;-67
2022/02/02 23:38:38;;;;;;;19.17;3.58;;;;;;;3.83;100.00;101783.78;10138453;28;20516;-67
2022/02/02 23:43:35;;;;;;;26.38;3.47;;;;;;;3.87;100.00;101782.19;10131769;28;20046;-66
2022/02/02 23:48:32;;;;;;;20.10;3.95;;;;;;;3.89;100.00;101769.25;10148034;28;20058;-66
2022/02/02 23:53:31;;;;;;;23.65;3.72;;;;;;;3.95;100.00;101768.28;10129080;28;20073;-66
2022/02/02 23:58:39;;;;;;;19.63;2.92;;;;;;;4.00;100.00;101771.03;10172269;28;20089;-64
